Time;durP1;ratioP1;P1;durP2;ratioP2;P2;SDS_P1;SDS_P2;PMS_P1;PMS_P2;Temp;Humidity;BMP_temperature;BMP_pressure;BME280_temperature;BME280_humidity;BME280_pressure;Samples;Min_cycle;Max_cycle;Signal;HPM_P1;HPM_P2
2024/04/10 00:01:41;;;;;;;0.20;0.20;;;;;;;15.74;100.00;75527.00;5157282;27;20004;-95
2024/04/10 00:04:06;;;;;;;0.20;0.20;;;;;;;15.75;100.00;75527.59;5213648;27;20003;-94
2024/04/10 00:06:31;;;;;;;0.20;0.20;;;;;;;15.49;100.00;75497.63;5212993;27;20352;-94
2024/04/10 00:08:57;;;;;;;0.20;0.20;;;;;;;15.33;100.00;75478.44;5213680;27;20455;-94
2024/04/10 00:11:25;;;;;;;0.20;0.20;;;;;;;15.12;100.00;75454.47;5181199;27;20041;-93
2024/04/10 00:13:50;;;;;;;0.20;0.20;;;;;;;15.60;100.00;75510.78;5169120;27;20005;-95
2024/04/10 00:16:16;;;;;;;0.20;0.20;;;;;;;15.43;100.00;75490.41;5124576;27;20024;-94
2024/04/10 00:18:42;;;;;;;0.20;0.20;;;;;;;15.61;100.00;75508.63;5147893;27;20005;-93
2024/04/10 00:21:08;;;;;;;0.20;0.20;;;;;;;15.69;100.00;75521.63;5119693;27;20020;-93
2024/04/10 00:23:33;;;;;;;0.20;0.20;;;;;;;15.71;100.00;75526.81;5148155;27;20005;-93
2024/04/10 00:26:01;;;;;;;0.20;0.20;;;;;;;15.62;100.00;75512.59;5132608;27;20005;-94
2024/04/10 00:28:28;;;;;;;0.20;0.20;;;;;;;15.68;100.00;75523.22;5180975;27;20000;-94
2024/04/10 00:30:54;;;;;;;0.20;0.20;;;;;;;15.70;100.00;75525.00;5180591;27;20088;-93
2024/04/10 00:33:20;;;;;;;0.20;0.20;;;;;;;15.75;100.00;75528.22;5151663;27;20012;-93
2024/04/10 00:36:00;;;;;;;0.20;0.20;;;;;;;15.78;100.00;75531.81;5151667;27;20008;-95
2024/04/10 00:38:28;;;;;;;0.20;0.20;;;;;;;15.85;100.00;75539.59;5180170;27;20005;-95
2024/04/10 00:40:55;;;;;;;0.20;0.20;;;;;;;15.74;100.00;75529.19;5151905;27;20043;-93
2024/04/10 00:43:21;;;;;;;0.20;0.20;;;;;;;15.89;100.00;75539.41;5180394;27;20065;-93
2024/04/10 00:46:13;;;;;;;0.20;0.20;;;;;;;15.63;100.00;75520.00;5180097;27;20096;-94
2024/04/10 00:48:43;;;;;;;0.20;0.20;;;;;;;15.91;100.00;75547.38;5181750;27;20022;-93
2024/04/10 00:51:16;;;;;;;0.20;0.20;;;;;;;15.75;100.00;75528.22;5152763;27;20643;-95
2024/04/10 00:53:42;;;;;;;0.20;0.20;;;;;;;15.90;100.00;75548.38;5151941;27;20138;-95
2024/04/10 00:56:10;;;;;;;0.20;0.20;;;;;;;15.95;100.00;75552.19;5151377;27;20015;-94
2024/04/10 00:58:38;;;;;;;0.20;0.20;;;;;;;15.88;100.00;75543.22;5180342;27;20033;-94
2024/04/10 01:01:04;;;;;;;0.20;0.20;;;;;;;15.86;100.00;75538.00;5180296;27;20012;-94
2024/04/10 01:03:31;;;;;;;0.20;0.20;;;;;;;15.69;100.00;75527.19;5146072;27;20063;-93
2024/04/10 01:06:04;;;;;;;0.20;0.20;;;;;;;15.84;100.00;75538.41;5131336;27;20014;-95
2024/04/10 01:08:31;;;;;;;;;;;;;;;15.84;100.00;75539.00;5184515;27;20014;-94
2024/04/10 01:10:58;;;;;;;0.20;0.20;;;;;;;15.86;100.00;75541.41;5183422;27;20252;-92
2024/04/10 01:13:25;;;;;;;0.20;0.20;;;;;;;15.74;100.00;75529.19;5205331;27;20001;-95
2024/04/10 01:15:50;;;;;;;0.20;0.20;;;;;;;15.74;100.00;75529.19;5180033;27;20000;-94
2024/04/10 01:18:15;;;;;;;0.20;0.20;;;;;;;15.74;100.00;75527.00;5141897;27;20322;-94
2024/04/10 01:20:41;;;;;;;0.20;0.20;;;;;;;15.70;100.00;75522.81;5147432;27;20001;-94
2024/04/10 01:23:06;;;;;;;0.20;0.20;;;;;;;15.46;100.00;75494.03;5119159;27;20005;-93
2024/04/10 01:25:32;;;;;;;0.20;0.20;;;;;;;15.61;100.00;75512.00;5118865;27;20016;-93
2024/04/10 01:27:58;;;;;;;0.20;0.20;;;;;;;15.84;100.00;75541.19;5147305;27;20015;-94
2024/04/10 01:30:24;;;;;;;0.20;0.20;;;;;;;16.02;100.00;75556.59;5118935;27;20005;-93
2024/04/10 01:32:49;;;;;;;0.20;0.20;;;;;;;15.86;100.00;75544.19;5137858;27;20015;-94
2024/04/10 01:35:16;;;;;;;0.20;0.20;;;;;;;15.89;100.00;75547.19;5179258;27;20014;-95
2024/04/10 01:37:42;;;;;;;0.20;0.20;;;;;;;15.91;100.00;75541.22;5150754;27;20087;-95
2024/04/10 01:40:08;;;;;;;0.20;0.20;;;;;;;15.79;100.00;75532.41;5151082;27;20004;-93
2024/04/10 01:42:33;;;;;;;0.20;0.20;;;;;;;15.76;100.00;75526.63;5178281;27;20015;-94
2024/04/10 01:44:59;;;;;;;0.20;0.20;;;;;;;15.88;100.00;75546.00;5179213;27;20008;-93
2024/04/10 01:47:24;;;;;;;0.20;0.20;;;;;;;15.75;100.00;75524.81;5157261;27;20703;-94
2024/04/10 01:49:50;;;;;;;0.20;0.20;;;;;;;15.65;100.00;75514.03;5175730;27;20032;-95
2024/04/10 01:52:16;;;;;;;0.20;0.20;;;;;;;15.46;100.00;75494.03;5179915;27;20009;-95
2024/04/10 01:54:42;;;;;;;0.20;0.20;;;;;;;15.70;100.00;75522.22;5150841;27;20016;-92
2024/04/10 01:57:07;;;;;;;0.20;0.20;;;;;;;15.68;100.00;75522.59;5179179;27;20020;-95
2024/04/10 01:59:33;;;;;;;0.20;0.20;;;;;;;15.62;100.00;75516.00;5150778;27;20032;-94
2024/04/10 02:01:58;;;;;;;0.20;0.20;;;;;;;15.69;100.00;75523.81;5178962;27;20445;-94
2024/04/10 02:04:24;;;;;;;0.20;0.20;;;;;;;15.71;100.00;75526.19;5149077;27;20016;-94
2024/04/10 02:06:49;;;;;;;0.20;0.20;;;;;;;15.64;100.00;75515.63;5144628;27;20464;-95
2024/04/10 02:09:17;;;;;;;0.20;0.20;;;;;;;15.71;100.00;75524.03;5168558;27;20044;-94
2024/04/10 02:11:42;;;;;;;0.20;0.20;;;;;;;15.78;100.00;75536.78;5144376;27;20013;-94
2024/04/10 02:14:08;;;;;;;0.20;0.20;;;;;;;15.67;100.00;75524.19;5146518;27;20081;-95
2024/04/10 02:16:33;;;;;;;0.20;0.20;;;;;;;15.50;100.00;75492.63;5146541;27;20012;-94
2024/04/10 02:18:59;;;;;;;0.20;0.20;;;;;;;15.55;100.00;75502.00;5118225;27;20042;-94
2024/04/10 02:21:24;;;;;;;0.20;0.20;;;;;;;15.48;100.00;75495.81;5144114;27;20024;-93
2024/04/10 02:23:49;;;;;;;0.20;0.20;;;;;;;15.57;100.00;75507.22;5146615;27;20005;-94
2024/04/10 02:26:15;;;;;;;0.20;0.20;;;;;;;15.53;100.00;75502.41;5117779;27;20560;-95
2024/04/10 02:28:41;;;;;;;0.20;0.20;;;;;;;15.68;100.00;75523.22;5145653;27;20009;-93
2024/04/10 02:31:09;;;;;;;0.20;0.20;;;;;;;15.70;100.00;75522.81;5149531;27;20009;-94
2024/04/10 02:33:38;;;;;;;0.20;0.20;;;;;;;15.83;100.00;75540.00;5149366;27;20001;-94
2024/04/10 02:36:05;;;;;;;0.20;0.20;;;;;;;15.71;100.00;75524.03;5147829;27;20323;-93
2024/04/10 02:38:32;;;;;;;0.20;0.20;;;;;;;15.65;100.00;75513.44;5121308;27;20020;-93
2024/04/10 02:40:57;;;;;;;0.20;0.20;;;;;;;15.55;100.00;75502.00;5120899;27;20437;-93
2024/04/10 02:43:23;;;;;;;0.20;0.20;;;;;;;15.54;100.00;75509.19;5149321;27;20005;-95
2024/04/10 02:51:26;;;;;;;0.20;0.20;;;;;;;15.59;100.00;75515.19;5198775;22;20032;-92
2024/04/10 03:07:15;;;;;;;0.20;0.20;;;;;;;15.34;100.00;75479.63;5145813;27;20474;-95
2024/04/10 03:09:40;;;;;;;0.20;0.20;;;;;;;15.54;100.00;75506.41;5144253;27;20001;-96
2024/04/10 03:12:07;;;;;;;0.20;0.20;;;;;;;15.37;100.00;75486.03;5109256;27;20015;-95
2024/04/10 03:14:33;;;;;;;0.20;0.20;;;;;;;15.40;100.00;75487.44;5120211;27;20005;-96
2024/04/10 03:16:59;;;;;;;0.20;0.20;;;;;;;15.48;100.00;75493.63;5120345;27;20005;-95
2024/04/10 03:19:24;;;;;;;0.20;0.20;;;;;;;15.74;100.00;75527.00;5172548;27;20000;-96
2024/04/10 03:21:50;;;;;;;0.20;0.20;;;;;;;15.79;100.00;75532.41;5152058;27;20001;-96
2024/04/10 03:24:15;;;;;;;0.20;0.20;;;;;;;15.78;100.00;75534.00;5120238;27;19997;-95
2024/04/10 03:29:27;;;;;;;0.20;0.20;;;;;;;15.53;100.00;75501.81;5459775;22;20103;-94
2024/04/10 03:31:53;;;;;;;0.20;0.20;;;;;;;15.47;100.00;75498.00;5165236;27;20004;-94
2024/04/10 03:34:19;;;;;;;0.20;0.20;;;;;;;15.51;100.00;75502.81;5164218;27;20089;-94
2024/04/10 03:36:44;;;;;;;0.20;0.20;;;;;;;15.43;100.00;75493.81;5177749;27;20404;-94
2024/04/10 03:39:11;;;;;;;0.20;0.20;;;;;;;15.70;100.00;75522.22;5151478;27;19997;-94
2024/04/10 03:41:37;;;;;;;0.20;0.20;;;;;;;15.91;100.00;75541.81;5167652;27;20032;-95
2024/04/10 03:44:05;;;;;;;0.20;0.20;;;;;;;15.78;100.00;75534.00;5149020;27;20005;-94
2024/04/10 03:46:32;;;;;;;0.20;0.20;;;;;;;15.74;100.00;75529.19;5127784;27;20036;-95
2024/04/10 03:48:57;;;;;;;0.20;0.20;;;;;;;15.66;100.00;75518.03;5152566;27;20467;-95
2024/04/10 03:51:23;;;;;;;0.20;0.20;;;;;;;15.43;100.00;75490.41;5180999;27;20004;-94
2024/04/10 03:53:51;;;;;;;0.20;0.20;;;;;;;15.48;100.00;75495.81;5168181;27;20005;-95
2024/04/10 03:56:20;;;;;;;0.20;0.20;;;;;;;15.59;100.00;75509.00;5102269;28;20016;-93
2024/04/10 03:58:49;;;;;;;0.20;0.20;;;;;;;15.69;100.00;75521.00;5150896;27;20442;-95
2024/04/10 04:01:14;;;;;;;0.20;0.20;;;;;;;15.69;100.00;75524.41;5157550;27;20067;-95
2024/04/10 04:03:46;;;;;;;0.20;0.20;;;;;;;15.76;100.00;75528.81;5208914;27;20004;-94
2024/04/10 04:06:11;;;;;;;0.20;0.20;;;;;;;15.82;100.00;75536.63;5214175;27;20003;-94
2024/04/10 04:08:37;;;;;;;0.20;0.20;;;;;;;15.84;100.00;75538.41;5169402;27;20088;-94
2024/04/10 04:11:04;;;;;;;0.20;0.20;;;;;;;15.54;100.00;75509.19;5166078;27;20000;-95
2024/04/10 04:13:30;;;;;;;0.20;0.20;;;;;;;15.83;100.00;75537.22;5191062;27;20000;-92
2024/04/10 04:15:56;;;;;;;0.20;0.20;;;;;;;15.55;100.00;75504.81;5213470;27;20016;-95
2024/04/10 04:18:22;;;;;;;0.20;0.20;;;;;;;15.89;100.00;75545.00;5210388;27;20065;-92
2024/04/10 04:20:48;;;;;;;0.20;0.20;;;;;;;15.83;100.00;75531.63;5196013;27;20010;-94
2024/04/10 04:23:14;;;;;;;0.20;0.20;;;;;;;15.74;100.00;75529.19;5200099;27;20019;-93
2024/04/10 04:25:40;;;;;;;0.20;0.20;;;;;;;15.79;100.00;75532.41;5169954;27;20001;-94
2024/04/10 04:28:06;;;;;;;0.20;0.20;;;;;;;15.90;100.00;75543.41;5186289;27;20036;-96
2024/04/10 04:30:32;;;;;;;0.20;0.20;;;;;;;16.04;100.00;75562.38;5212733;27;20337;-95
2024/04/10 04:32:59;;;;;;;0.20;0.20;;;;;;;15.99;100.00;75556.41;5182684;27;20032;-95
2024/04/10 04:35:25;;;;;;;0.20;0.20;;;;;;;15.90;100.00;75542.81;5173262;27;20004;-95
2024/04/10 04:37:57;;;;;;;0.20;0.20;;;;;;;15.90;100.00;75546.19;5196036;27;20008;-93
2024/04/10 04:40:30;;;;;;;0.20;0.20;;;;;;;16.01;100.00;75558.78;5153401;27;20356;-93
2024/04/10 04:42:55;;;;;;;0.20;0.20;;;;;;;15.88;100.00;75552.16;5194541;27;20014;-96
2024/04/10 04:45:20;;;;;;;0.20;0.20;;;;;;;16.08;100.00;75569.97;5184644;27;20004;-94
2024/04/10 04:47:46;;;;;;;0.20;0.20;;;;;;;16.07;100.00;75563.19;5176747;27;20003;-95
2024/04/10 04:50:13;;;;;;;0.20;0.20;;;;;;;16.19;100.00;75583.19;5180321;27;20079;-94
2024/04/10 04:52:39;;;;;;;0.20;0.20;;;;;;;16.05;100.00;75563.00;5163613;27;20011;-95
2024/04/10 04:55:08;;;;;;;0.20;0.20;;;;;;;16.15;100.00;75570.00;5193235;27;20016;-95
2024/04/10 04:57:34;;;;;;;0.20;0.20;;;;;;;15.90;100.00;75540.03;5180202;27;20000;-95
2024/04/10 05:00:11;;;;;;;0.20;0.20;;;;;;;15.87;100.00;75544.78;5188094;27;20007;-94
2024/04/10 05:02:37;;;;;;;0.20;0.20;;;;;;;15.78;100.00;75529.03;5150267;27;20084;-95
2024/04/10 05:05:02;;;;;;;0.20;0.20;;;;;;;15.77;100.00;75530.63;5179578;27;20409;-94
2024/04/10 05:07:28;;;;;;;0.20;0.20;;;;;;;15.59;100.00;75509.59;5151354;27;20011;-94
2024/04/10 05:09:55;;;;;;;0.20;0.20;;;;;;;15.65;100.00;75521.78;5179399;27;19996;-95
2024/04/10 05:12:24;;;;;;;0.20;0.20;;;;;;;15.54;100.00;75503.59;5150712;27;20012;-95
2024/04/10 05:14:53;;;;;;;0.20;0.20;;;;;;;15.65;100.00;75519.00;5150723;27;20021;-96
2024/04/10 05:17:19;;;;;;;0.20;0.20;;;;;;;15.58;100.00;75510.59;5150635;27;20020;-96
2024/04/10 05:19:47;;;;;;;0.20;0.20;;;;;;;15.56;100.00;75508.81;5179865;27;20079;-95
2024/04/10 05:22:13;;;;;;;0.20;0.20;;;;;;;15.52;100.00;75501.22;5127724;27;20015;-96
2024/04/10 05:24:39;;;;;;;0.20;0.20;;;;;;;15.42;100.00;75489.22;5147244;27;20009;-95
2024/04/10 05:27:05;;;;;;;0.20;0.20;;;;;;;15.40;100.00;75486.84;5129242;27;20464;-95
2024/04/10 05:29:31;;;;;;;0.20;0.20;;;;;;;15.30;100.00;75474.84;5124430;27;20087;-96
2024/04/10 05:31:58;;;;;;;0.20;0.20;;;;;;;15.40;100.00;75484.06;5104045;27;20006;-94
2024/04/10 05:34:24;;;;;;;0.20;0.20;;;;;;;15.48;100.00;75496.41;5111755;27;20009;-93
2024/04/10 05:36:53;;;;;;;0.20;0.20;;;;;;;15.41;100.00;75490.81;5106947;27;20009;-96
2024/04/10 05:39:19;;;;;;;0.20;0.20;;;;;;;15.43;100.00;75493.22;5135911;27;20120;-91
2024/04/10 05:41:46;;;;;;;0.20;0.20;;;;;;;15.26;100.00;75470.06;5145465;27;20012;-92
2024/04/10 07:29:56;;;;;;;0.20;0.20;;;;;;;15.98;100.00;75549.63;455577;26;20350;-93
2024/04/10 07:32:21;;;;;;;0.20;0.20;;;;;;;16.34;100.00;75602.75;5070453;28;20014;-94
2024/04/10 07:34:47;;;;;;;0.30;0.30;;;;;;;16.48;100.00;75619.53;5087890;28;20024;-93
2024/04/10 07:37:12;;;;;;;0.20;0.20;;;;;;;16.73;100.00;75643.38;5088430;28;20009;-94
2024/04/10 07:39:38;;;;;;;0.20;0.20;;;;;;;16.58;100.00;75628.75;5088328;28;20014;-94
2024/04/10 07:42:05;;;;;;;0.20;0.20;;;;;;;17.10;100.00;75687.19;5103880;27;20020;-93
2024/04/10 07:44:31;;;;;;;0.20;0.20;;;;;;;17.17;100.00;75689.38;5092987;28;20086;-93
2024/04/10 07:46:56;;;;;;;0.20;0.20;;;;;;;17.45;98.94;75722.38;5088184;28;20010;-93
2024/04/10 07:49:21;;;;;;;0.20;0.20;;;;;;;17.84;93.36;75773.59;5161426;27;20009;-92
2024/04/10 08:06:00;;;;;;;0.20;0.20;;;;;;;18.54;95.93;75859.88;5185844;22;20122;-94
2024/04/10 08:08:26;;;;;;;0.20;0.20;;;;;;;18.43;95.26;75843.25;5148436;27;20002;-94
2024/04/10 08:11:13;;;;;;;0.20;0.20;;;;;;;18.32;95.55;75828.44;5148374;27;19997;-95
2024/04/10 08:13:43;;;;;;;0.20;0.20;;;;;;;18.09;96.61;75803.63;5148364;27;20009;-94
2024/04/10 08:18:59;;;;;;;0.20;0.20;;;;;;;18.24;95.41;75821.63;5488762;22;20103;-92
2024/04/10 08:26:37;;;;;;;0.20;0.20;;;;;;;17.92;95.10;75783.22;5228444;22;20047;-92
2024/04/10 08:29:03;;;;;;;0.20;0.20;;;;;;;18.19;93.26;75815.03;5056267;28;19999;-94
2024/04/10 08:31:29;;;;;;;0.20;0.20;;;;;;;18.57;89.45;75860.06;5083992;28;20014;-92
2024/04/10 08:33:54;;;;;;;0.20;0.20;;;;;;;19.14;87.99;75921.16;5084219;28;20014;-94
2024/04/10 08:36:21;;;;;;;0.20;0.20;;;;;;;19.34;85.47;75945.78;5050730;28;20083;-93
2024/04/10 08:38:47;;;;;;;0.20;0.20;;;;;;;19.14;82.75;75927.38;5074246;28;20011;-93
2024/04/10 08:41:17;;;;;;;0.20;0.20;;;;;;;18.47;87.01;75845.84;5057082;28;19999;-93
2024/04/10 08:43:48;;;;;;;0.20;0.20;;;;;;;18.63;83.60;75867.28;5057174;28;20039;-93
2024/04/10 08:46:15;;;;;;;0.20;0.20;;;;;;;18.82;80.04;75890.13;5056543;28;20114;-94
2024/04/10 08:48:43;;;;;;;0.20;0.20;;;;;;;19.24;78.98;75939.38;5055749;28;20006;-92
2024/04/10 08:51:13;;;;;;;0.20;0.20;;;;;;;18.87;77.75;75892.13;5083094;28;20008;-93
2024/04/10 08:53:41;;;;;;;0.20;0.20;;;;;;;19.56;71.58;75979.44;5054058;28;20006;-94
2024/04/10 08:56:07;;;;;;;0.20;0.20;;;;;;;19.31;69.89;75941.59;5054094;28;20018;-95
2024/04/10 08:58:32;;;;;;;0.20;0.20;;;;;;;19.71;69.15;75989.09;5084687;28;20006;-93
2024/04/10 09:00:59;;;;;;;0.20;0.20;;;;;;;20.09;64.74;76039.78;5055076;28;20663;-93
2024/04/10 09:03:25;;;;;;;0.20;0.20;;;;;;;21.11;60.29;76153.81;5082188;28;20011;-91
2024/04/10 09:05:50;;;;;;;0.20;0.20;;;;;;;21.82;57.50;76240.88;5091149;28;20013;-93
2024/04/10 09:08:15;;;;;;;0.20;0.20;;;;;;;21.02;60.33;76149.22;5114664;28;20009;-92
2024/04/10 09:10:41;;;;;;;0.20;0.20;;;;;;;21.14;58.85;76163.03;5115511;28;20006;-93
2024/04/10 09:13:09;;;;;;;0.20;0.20;;;;;;;20.81;61.44;76123.97;5115811;28;20523;-93
2024/04/10 09:15:38;;;;;;;0.20;0.20;;;;;;;21.32;58.24;76179.13;5088355;28;20085;-92
2024/04/10 09:18:05;;;;;;;0.20;0.20;;;;;;;21.23;57.98;76168.25;5099190;28;20066;-92
2024/04/10 09:20:31;;;;;;;0.20;0.20;;;;;;;20.91;57.98;76133.78;5099047;28;20013;-91
2024/04/10 09:23:01;;;;;;;0.20;0.20;;;;;;;20.12;61.94;76042.75;5097997;28;20009;-94
2024/04/10 09:25:26;;;;;;;0.20;0.20;;;;;;;19.45;62.66;75964.03;5116322;27;20088;-93
2024/04/10 09:28:05;;;;;;;0.20;0.20;;;;;;;20.02;59.72;76031.34;5115091;28;20137;-94
2024/04/10 09:30:31;;;;;;;0.20;0.20;;;;;;;20.34;59.38;76063.00;5089245;28;20466;-91
2024/04/10 09:32:58;;;;;;;0.20;0.20;;;;;;;20.14;59.36;76045.78;5114891;28;20013;-94
2024/04/10 09:35:25;;;;;;;0.20;0.20;;;;;;;19.58;61.66;75971.22;5115175;28;20002;-93
2024/04/10 09:37:54;;;;;;;0.20;0.20;;;;;;;20.14;60.57;76039.56;5085928;28;20010;-93
2024/04/10 09:40:23;;;;;;;0.20;0.20;;;;;;;19.71;61.86;75988.47;5114307;28;20029;-93
2024/04/10 09:42:49;;;;;;;0.20;0.20;;;;;;;19.64;61.40;75983.47;5114429;28;20083;-93
2024/04/10 09:45:18;;;;;;;0.20;0.20;;;;;;;20.42;59.37;76073.22;5114103;28;20006;-92
2024/04/10 09:47:44;;;;;;;0.20;0.20;;;;;;;20.42;56.88;76073.22;5114617;28;20013;-93
2024/04/10 09:50:17;;;;;;;0.20;0.20;;;;;;;20.79;55.35;76116.53;5114411;28;20002;-93
2024/04/10 09:52:45;;;;;;;0.20;0.20;;;;;;;20.26;55.98;76056.78;5114372;28;20013;-93
2024/04/10 09:55:13;;;;;;;0.20;0.20;;;;;;;21.11;54.42;76157.25;5114267;28;20006;-93
2024/04/10 09:57:42;;;;;;;0.20;0.20;;;;;;;20.84;54.76;76127.56;5086825;28;20002;-91
2024/04/10 10:00:09;;;;;;;0.20;0.20;;;;;;;20.19;54.80;76044.97;5086635;28;20009;-94
2024/04/10 10:02:34;;;;;;;0.20;0.20;;;;;;;20.64;54.14;76098.50;5086059;28;20002;-93
2024/04/10 10:05:00;;;;;;;0.20;0.20;;;;;;;21.47;51.97;76202.19;5086683;28;20016;-93
2024/04/10 10:07:25;;;;;;;0.20;0.20;;;;;;;21.45;50.52;76197.56;5086869;28;20073;-91
2024/04/10 10:09:51;;;;;;;0.20;0.20;;;;;;;21.82;50.12;76240.88;5086691;28;20001;-92
2024/04/10 10:12:27;;;;;;;0.20;0.20;;;;;;;21.41;50.43;76192.75;5113095;28;20018;-92
2024/04/10 10:14:52;;;;;;;0.20;0.20;;;;;;;21.28;50.19;76173.66;5112997;28;20430;-92
2024/04/10 10:17:28;;;;;;;0.20;0.20;;;;;;;21.27;50.25;76172.47;5108087;28;20017;-91
2024/04/10 10:19:53;;;;;;;0.20;0.20;;;;;;;21.42;49.51;76191.16;5085346;28;20447;-92
2024/04/10 10:22:19;;;;;;;0.20;0.20;;;;;;;22.00;47.16;76258.50;5085727;28;20012;-91
2024/04/10 10:24:44;;;;;;;0.20;0.20;;;;;;;20.39;50.30;76069.59;5120327;27;20001;-90
2024/04/10 10:27:09;;;;;;;0.20;0.20;;;;;;;21.50;49.00;76202.38;5117221;27;20001;-91
2024/04/10 10:29:36;;;;;;;0.20;0.20;;;;;;;21.91;47.00;76251.13;5117059;27;20012;-92
2024/04/10 10:32:05;;;;;;;0.20;0.20;;;;;;;21.19;48.40;76166.84;5145669;27;20081;-90
2024/04/10 10:34:31;;;;;;;0.20;0.20;;;;;;;21.71;47.29;76231.06;5116791;27;20012;-91
2024/04/10 10:37:06;;;;;;;0.20;0.20;;;;;;;20.47;50.27;76078.06;5115203;27;20077;-89
2024/04/10 10:39:32;;;;;;;0.20;0.20;;;;;;;21.18;49.89;76165.06;5144096;27;20033;-91
2024/04/10 10:42:02;;;;;;;0.20;0.20;;;;;;;20.44;51.16;76080.63;5145278;27;20339;-90
2024/04/10 10:44:27;;;;;;;0.20;0.20;;;;;;;20.98;49.96;76141.59;5145687;27;20015;-91
2024/04/10 10:46:56;;;;;;;0.20;0.20;;;;;;;20.49;50.15;76081.06;5145326;27;20001;-93
2024/04/10 10:49:25;;;;;;;0.20;0.20;;;;;;;20.06;49.58;76029.94;5117613;27;20017;-88
2024/04/10 10:51:53;;;;;;;0.20;0.20;;;;;;;19.84;52.04;76010.31;5120631;27;20016;-92
2024/04/10 10:54:20;;;;;;;0.20;0.20;;;;;;;20.22;50.88;76054.78;5148825;27;20005;-93
2024/04/10 10:56:45;;;;;;;0.20;0.20;;;;;;;20.31;50.29;76062.22;5148123;27;20005;-90
2024/04/10 10:59:12;;;;;;;0.20;0.20;;;;;;;20.66;49.03;76103.69;5148347;27;20001;-90
2024/04/10 11:01:37;;;;;;;0.20;0.20;;;;;;;21.00;48.49;76137.78;5148503;27;20152;-91
2024/04/10 11:04:10;;;;;;;0.20;0.20;;;;;;;20.17;50.83;76045.97;5148593;27;19997;-94
2024/04/10 11:06:37;;;;;;;0.20;0.20;;;;;;;20.67;50.12;76099.91;5140192;27;20363;-91
2024/04/10 11:09:09;;;;;;;0.20;0.20;;;;;;;20.86;49.78;76127.75;5116886;28;20014;-91
2024/04/10 11:11:37;;;;;;;0.20;0.20;;;;;;;20.12;51.21;76039.97;5116162;28;20034;-92
2024/04/10 11:14:03;;;;;;;0.20;0.20;;;;;;;19.99;51.41;76021.53;5088422;28;20343;-94
2024/04/10 11:16:32;;;;;;;0.20;0.20;;;;;;;20.19;50.54;76051.19;5088656;28;20001;-90
2024/04/10 11:18:58;;;;;;;0.20;0.20;;;;;;;20.57;50.05;76090.09;5088012;28;20082;-92
2024/04/10 11:21:24;;;;;;;0.20;0.20;;;;;;;20.39;49.30;76069.59;5087011;28;20728;-91
2024/04/10 11:23:49;;;;;;;0.20;0.20;;;;;;;20.70;48.19;76105.09;5088681;28;20467;-91
2024/04/10 11:26:15;;;;;;;0.20;0.20;;;;;;;19.73;50.05;75994.28;5115733;27;20079;-91
2024/04/10 11:28:41;;;;;;;0.20;0.20;;;;;;;19.72;50.53;75993.09;5087805;28;20025;-90
2024/04/10 11:31:07;;;;;;;0.20;0.20;;;;;;;20.32;49.83;76063.41;5115898;28;19994;-92
2024/04/10 11:33:32;;;;;;;0.20;0.20;;;;;;;20.14;50.06;76042.38;5116553;28;20001;-92
2024/04/10 11:35:59;;;;;;;0.20;0.20;;;;;;;19.95;51.09;76016.72;5088446;28;20030;-91
2024/04/10 11:38:25;;;;;;;0.20;0.20;;;;;;;19.87;51.34;76008.31;5090631;28;20007;-92
2024/04/10 11:40:51;;;;;;;0.20;0.20;;;;;;;19.20;53.13;75931.16;5056998;28;20034;-92
2024/04/10 11:43:16;;;;;;;0.20;0.20;;;;;;;19.16;53.97;75926.97;5080986;28;20464;-92
2024/04/10 11:45:43;;;;;;;0.20;0.20;;;;;;;19.69;52.93;75986.66;5057458;28;20010;-92
2024/04/10 11:48:09;;;;;;;0.20;0.20;;;;;;;19.91;52.20;76011.91;5057909;28;20018;-92
2024/04/10 11:50:35;;;;;;;0.20;0.20;;;;;;;19.55;52.63;75973.25;5057351;28;20014;-93
2024/04/10 11:53:00;;;;;;;0.20;0.20;;;;;;;19.87;51.43;76011.13;5057107;28;20030;-92
2024/04/10 11:55:27;;;;;;;0.20;0.20;;;;;;;20.32;49.85;76069.63;5084437;28;20018;-93
2024/04/10 11:57:53;;;;;;;0.20;0.20;;;;;;;19.97;50.58;76019.13;5084349;28;20863;-92
2024/04/10 12:00:18;;;;;;;0.20;0.20;;;;;;;20.14;49.90;76040.16;5056931;28;20091;-93
2024/04/10 12:02:44;;;;;;;0.20;0.20;;;;;;;19.85;49.55;76008.09;5056130;28;20010;-93
2024/04/10 12:05:09;;;;;;;0.20;0.20;;;;;;;19.98;49.23;76020.34;5085885;28;20002;-93
2024/04/10 12:07:35;;;;;;;0.20;0.20;;;;;;;20.03;49.15;76026.34;5088682;28;20082;-93
2024/04/10 12:10:05;;;;;;;0.20;0.20;;;;;;;19.89;50.06;76010.72;5115568;28;19997;-92
2024/04/10 12:12:31;;;;;;;0.20;0.20;;;;;;;20.23;49.95;76052.59;5115739;28;20002;-92
2024/04/10 12:14:56;;;;;;;0.20;0.20;;;;;;;19.91;50.20;76012.50;5115697;28;20051;-92
2024/04/10 12:17:22;;;;;;;0.20;0.20;;;;;;;19.86;50.09;76007.09;5087894;28;20002;-92
2024/04/10 12:19:47;;;;;;;0.20;0.20;;;;;;;20.30;49.20;76061.59;5087743;28;20002;-92
2024/04/10 12:22:14;;;;;;;0.20;0.20;;;;;;;20.06;48.26;76035.56;5112774;28;20018;-93
2024/04/10 12:24:39;;;;;;;0.20;0.20;;;;;;;19.56;49.89;75974.44;5083464;28;20017;-92
2024/04/10 12:27:05;;;;;;;0.20;0.20;;;;;;;19.45;50.88;75961.22;5082932;28;20022;-92
2024/04/10 12:29:31;;;;;;;0.20;0.20;;;;;;;19.59;50.12;75975.25;5097248;28;20518;-92
2024/04/10 12:31:58;;;;;;;0.20;0.20;;;;;;;20.29;49.29;76057.59;5115976;28;20009;-92
2024/04/10 12:34:24;;;;;;;0.20;0.20;;;;;;;20.60;47.47;76096.50;5091521;28;20447;-92
2024/04/10 12:39:34;;;;;;;0.20;0.20;;;;;;;19.64;49.03;75986.25;5114293;28;20563;-92
2024/04/10 12:41:59;;;;;;;0.20;0.20;;;;;;;19.89;48.95;76005.09;5087921;28;19998;-94
2024/04/10 12:44:25;;;;;;;0.20;0.20;;;;;;;19.43;49.91;75958.19;5084466;28;20687;-92
2024/04/10 12:46:55;;;;;;;0.20;0.20;;;;;;;19.77;50.04;76001.31;5098075;28;20011;-92
2024/04/10 12:49:22;;;;;;;0.20;0.20;;;;;;;19.85;50.46;76005.91;5057311;28;20030;-94
2024/04/10 12:51:47;;;;;;;0.20;0.20;;;;;;;19.71;50.38;75989.09;5083435;28;20013;-93
2024/04/10 12:54:13;;;;;;;0.20;0.20;;;;;;;19.70;50.27;75993.47;5056188;28;20011;-93
2024/04/10 12:56:39;;;;;;;0.20;0.20;;;;;;;19.79;50.21;75998.69;5055995;28;20002;-93
2024/04/10 12:59:04;;;;;;;0.20;0.20;;;;;;;19.42;49.62;75954.19;5084295;28;20484;-93
2024/04/10 13:01:31;;;;;;;0.20;0.20;;;;;;;19.35;50.16;75944.19;5085047;28;20021;-93
2024/04/10 13:03:56;;;;;;;0.20;0.20;;;;;;;20.20;48.80;76046.78;5088705;28;20014;-95
2024/04/10 13:06:24;;;;;;;0.20;0.20;;;;;;;20.19;48.94;76045.59;5119776;27;20018;-92
2024/04/10 13:08:52;;;;;;;0.20;0.20;;;;;;;20.05;48.19;76029.34;5092564;28;20033;-94
2024/04/10 13:11:18;;;;;;;0.20;0.20;;;;;;;20.04;48.20;76025.34;5123115;28;20009;-93
2024/04/10 13:13:43;;;;;;;0.20;0.20;;;;;;;19.45;48.42;75957.81;5121040;28;20766;-96
2024/04/10 13:16:10;;;;;;;0.10;0.10;;;;;;;19.67;48.00;75984.28;5122054;28;20340;-94
2024/04/10 13:18:37;;;;;;;0.20;0.20;;;;;;;19.60;47.99;75976.47;5094399;28;20047;-93
2024/04/10 13:21:03;;;;;;;0.20;0.20;;;;;;;19.53;47.78;75970.22;5094142;28;20006;-94
2024/04/10 13:23:31;;;;;;;0.20;0.20;;;;;;;18.88;49.44;75890.53;5118876;28;20006;-94
2024/04/10 13:26:04;;;;;;;0.20;0.20;;;;;;;19.31;49.78;75944.97;5116413;27;20001;-94
2024/04/10 13:28:31;;;;;;;0.20;0.20;;;;;;;19.59;49.09;75971.84;5116375;28;20009;-93
2024/04/10 13:31:13;;;;;;;0.20;0.20;;;;;;;19.19;49.88;75933.38;5115947;28;20002;-94
2024/04/10 13:36:48;;;;;;;0.20;0.20;;;;;;;18.57;50.88;75862.88;5440728;25;20798;-92
2024/04/10 13:39:14;;;;;;;0.20;0.20;;;;;;;19.46;49.30;75959.00;5437174;26;20475;-94
2024/04/10 13:41:39;;;;;;;0.20;0.20;;;;;;;19.08;50.51;75914.56;5436705;26;19999;-95
2024/04/10 13:44:05;;;;;;;0.20;0.20;;;;;;;19.85;49.04;76005.91;5405541;26;20002;-92
2024/04/10 13:46:30;;;;;;;0.20;0.20;;;;;;;18.98;50.17;75899.75;5436249;26;20068;-93
2024/04/10 13:48:56;;;;;;;0.20;0.20;;;;;;;19.24;48.98;75935.97;5435531;26;20015;-93
2024/04/10 13:51:24;;;;;;;0.20;0.20;;;;;;;19.62;48.27;75978.84;5405023;26;20003;-93
2024/04/10 13:53:49;;;;;;;0.20;0.20;;;;;;;19.50;47.54;75963.81;5405357;26;20006;-92
2024/04/10 13:56:15;;;;;;;0.20;0.20;;;;;;;18.90;48.83;75898.53;5413266;26;19995;-92
2024/04/10 13:58:42;;;;;;;0.20;0.20;;;;;;;18.87;49.24;75889.94;5416383;26;19999;-92
2024/04/10 14:01:25;;;;;;;0.20;0.20;;;;;;;18.59;49.79;75859.69;5414518;26;20072;-93
2024/04/10 14:06:35;;;;;;;0.20;0.20;;;;;;;18.99;50.71;75909.34;5490685;21;20038;-92